N752OC KCPU-KBIH
Flight info
| Callsign | N752OC |
|---|---|
| Flight time | 0h 42m |
| Altitude | 10998 |
| Route | MERPH |
| Aircraft | C208/M-VGDW/C |
Departure
| Time | 2026-05-04 03:27 |
|---|---|
| Airport | Calaveras Co Maury Rasmussen Field (KCPU) |
Arrival
| Time | 2026-05-04 04:09 |
|---|---|
| Airport | Eastern Sierra Regional Airport (KBIH) |
| Time | Latitude | Longitude | Altitude | Speed | Heading |
|---|---|---|---|---|---|
| 2026-05-04 03:14 | 38.14629 | -120.64705 | 1309 ft | 0 kts | 237° |
| 2026-05-04 03:22 | 38.14627 | -120.64722 | 1310 ft | 5 kts | 287° |
| 2026-05-04 03:22 | 38.14646 | -120.64738 | 1310 ft | 6 kts | 326° |
| 2026-05-04 03:23 | 38.14683 | -120.64789 | 1309 ft | 5 kts | 287° |
| 2026-05-04 03:23 | 38.14701 | -120.64830 | 1309 ft | 6 kts | 326° |
| 2026-05-04 03:23 | 38.14770 | -120.64889 | 1308 ft | 17 kts | 326° |
| 2026-05-04 03:23 | 38.14887 | -120.64990 | 1306 ft | 21 kts | 325° |
| 2026-05-04 03:24 | 38.14933 | -120.65029 | 1305 ft | 0 kts | 329° |
| 2026-05-04 03:24 | 38.14941 | -120.65035 | 1305 ft | 5 kts | 325° |
| 2026-05-04 03:24 | 38.15008 | -120.65093 | 1303 ft | 6 kts | 310° |
| 2026-05-04 03:25 | 38.15011 | -120.65099 | 1303 ft | 0 kts | 297° |
| 2026-05-04 03:25 | 38.15016 | -120.65131 | 1303 ft | 8 kts | 276° |
| 2026-05-04 03:25 | 38.15002 | -120.65152 | 1303 ft | 3 kts | 140° |
| 2026-05-04 03:26 | 38.14989 | -120.65141 | 1303 ft | 0 kts | 144° |
| 2026-05-04 03:27 | 38.14934 | -120.65094 | 1304 ft | 39 kts | 146° |
| 2026-05-04 03:27 | 38.14511 | -120.64728 | 1322 ft | 98 kts | 143° |
| 2026-05-04 03:27 | 38.13882 | -120.64220 | 1590 ft | 111 kts | 147° |
| 2026-05-04 03:27 | 38.13219 | -120.63699 | 1948 ft | 115 kts | 144° |
| 2026-05-04 03:28 | 38.12765 | -120.62901 | 2280 ft | 119 kts | 98° |
| 2026-05-04 03:28 | 38.12676 | -120.61822 | 2572 ft | 126 kts | 94° |
| 2026-05-04 03:28 | 38.12592 | -120.60719 | 2916 ft | 127 kts | 94° |
| 2026-05-04 03:28 | 38.12528 | -120.59976 | 3151 ft | 128 kts | 94° |
| 2026-05-04 03:29 | 38.12382 | -120.58469 | 3621 ft | 129 kts | 94° |
| 2026-05-04 03:29 | 38.12263 | -120.57341 | 3959 ft | 130 kts | 95° |
| 2026-05-04 03:29 | 38.12136 | -120.56216 | 4303 ft | 130 kts | 95° |
| 2026-05-04 03:29 | 38.12046 | -120.55463 | 4525 ft | 130 kts | 96° |
| 2026-05-04 03:30 | 38.11852 | -120.53950 | 4967 ft | 131 kts | 96° |
| 2026-05-04 03:30 | 38.11698 | -120.52824 | 5313 ft | 131 kts | 97° |
| 2026-05-04 03:30 | 38.11589 | -120.52067 | 5549 ft | 131 kts | 98° |
| 2026-05-04 03:30 | 38.11359 | -120.50558 | 5995 ft | 131 kts | 98° |
| 2026-05-04 03:31 | 38.11178 | -120.49435 | 6321 ft | 131 kts | 99° |
| 2026-05-04 03:31 | 38.10739 | -120.48438 | 6666 ft | 134 kts | 138° |
| 2026-05-04 03:31 | 38.09976 | -120.47755 | 7016 ft | 135 kts | 143° |
| 2026-05-04 03:31 | 38.09195 | -120.47117 | 7348 ft | 136 kts | 144° |
| 2026-05-04 03:32 | 38.08397 | -120.46475 | 7681 ft | 137 kts | 144° |
| 2026-05-04 03:32 | 38.07592 | -120.45814 | 8006 ft | 137 kts | 140° |
| 2026-05-04 03:32 | 38.06897 | -120.45002 | 8344 ft | 136 kts | 128° |
| 2026-05-04 03:32 | 38.06323 | -120.44061 | 8656 ft | 136 kts | 121° |
| 2026-05-04 03:33 | 38.05812 | -120.43046 | 8993 ft | 136 kts | 118° |
| 2026-05-04 03:33 | 38.05349 | -120.42018 | 9328 ft | 136 kts | 116° |
| 2026-05-04 03:33 | 38.04894 | -120.40955 | 9671 ft | 137 kts | 115° |
| 2026-05-04 03:33 | 38.04451 | -120.39895 | 10030 ft | 138 kts | 115° |
| 2026-05-04 03:34 | 38.04009 | -120.38827 | 10372 ft | 138 kts | 114° |
| 2026-05-04 03:34 | 38.03559 | -120.37731 | 10702 ft | 139 kts | 114° |
| 2026-05-04 03:34 | 38.03163 | -120.36627 | 11016 ft | 140 kts | 108° |
| 2026-05-04 03:34 | 38.02777 | -120.35403 | 11118 ft | 157 kts | 107° |
| 2026-05-04 03:35 | 38.02348 | -120.34034 | 11134 ft | 174 kts | 109° |
| 2026-05-04 03:35 | 38.02044 | -120.33073 | 11131 ft | 182 kts | 109° |
| 2026-05-04 03:35 | 38.01394 | -120.31034 | 11123 ft | 191 kts | 109° |
| 2026-05-04 03:35 | 38.00891 | -120.29464 | 11122 ft | 193 kts | 109° |
| 2026-05-04 03:36 | 38.00390 | -120.27892 | 11121 ft | 192 kts | 109° |
| 2026-05-04 03:36 | 37.99886 | -120.26315 | 11132 ft | 192 kts | 109° |
| 2026-05-04 03:36 | 37.99387 | -120.24749 | 11129 ft | 192 kts | 109° |
| 2026-05-04 03:36 | 37.98885 | -120.23174 | 11132 ft | 192 kts | 110° |
| 2026-05-04 03:37 | 37.98381 | -120.21594 | 11136 ft | 192 kts | 110° |
| 2026-05-04 03:37 | 37.97883 | -120.20031 | 11135 ft | 191 kts | 110° |
| 2026-05-04 03:37 | 37.97383 | -120.18475 | 11150 ft | 191 kts | 109° |
| 2026-05-04 03:37 | 37.96884 | -120.16909 | 11155 ft | 191 kts | 110° |
| 2026-05-04 03:38 | 37.96384 | -120.15345 | 11150 ft | 192 kts | 109° |
| 2026-05-04 03:38 | 37.95886 | -120.13779 | 11156 ft | 192 kts | 109° |
| 2026-05-04 03:38 | 37.95388 | -120.12231 | 11169 ft | 192 kts | 109° |
| 2026-05-04 03:38 | 37.94882 | -120.10650 | 11174 ft | 192 kts | 109° |
| 2026-05-04 03:39 | 37.94379 | -120.09079 | 11169 ft | 193 kts | 109° |
| 2026-05-04 03:39 | 37.93868 | -120.07498 | 11167 ft | 193 kts | 109° |
| 2026-05-04 03:39 | 37.93365 | -120.05937 | 11175 ft | 192 kts | 109° |
| 2026-05-04 03:39 | 37.92862 | -120.04370 | 11186 ft | 192 kts | 109° |
| 2026-05-04 03:40 | 37.92360 | -120.02805 | 11192 ft | 191 kts | 109° |
| 2026-05-04 03:40 | 37.91852 | -120.01231 | 11196 ft | 192 kts | 109° |
| 2026-05-04 03:40 | 37.91351 | -119.99674 | 11193 ft | 192 kts | 109° |
| 2026-05-04 03:40 | 37.90848 | -119.98115 | 11190 ft | 192 kts | 109° |
| 2026-05-04 03:41 | 37.90344 | -119.96544 | 11187 ft | 193 kts | 109° |
| 2026-05-04 03:41 | 37.89835 | -119.94970 | 11185 ft | 193 kts | 109° |
| 2026-05-04 03:41 | 37.89497 | -119.93923 | 11185 ft | 192 kts | 109° |
| 2026-05-04 03:41 | 37.88826 | -119.91841 | 11190 ft | 192 kts | 109° |
| 2026-05-04 03:42 | 37.88321 | -119.90277 | 11195 ft | 192 kts | 109° |
| 2026-05-04 03:42 | 37.87819 | -119.88721 | 11205 ft | 192 kts | 109° |
| 2026-05-04 03:42 | 37.87309 | -119.87141 | 11203 ft | 192 kts | 109° |
| 2026-05-04 03:42 | 37.86808 | -119.85590 | 11211 ft | 192 kts | 109° |
| 2026-05-04 03:43 | 37.86302 | -119.84025 | 11215 ft | 192 kts | 109° |
| 2026-05-04 03:43 | 37.85794 | -119.82455 | 11222 ft | 192 kts | 109° |
| 2026-05-04 03:43 | 37.85288 | -119.80897 | 11227 ft | 192 kts | 109° |
| 2026-05-04 03:43 | 37.84785 | -119.79344 | 11228 ft | 192 kts | 109° |
| 2026-05-04 03:44 | 37.84280 | -119.77779 | 11228 ft | 192 kts | 109° |
| 2026-05-04 03:44 | 37.83773 | -119.76218 | 11228 ft | 192 kts | 109° |
| 2026-05-04 03:44 | 37.83260 | -119.74641 | 11224 ft | 193 kts | 109° |
| 2026-05-04 03:44 | 37.82753 | -119.73074 | 11223 ft | 193 kts | 109° |
| 2026-05-04 03:45 | 37.82243 | -119.71503 | 11223 ft | 193 kts | 109° |
| 2026-05-04 03:45 | 37.81727 | -119.69920 | 11223 ft | 193 kts | 109° |
| 2026-05-04 03:45 | 37.81220 | -119.68362 | 11225 ft | 193 kts | 109° |
| 2026-05-04 03:45 | 37.80709 | -119.66790 | 11224 ft | 193 kts | 109° |
| 2026-05-04 03:46 | 37.80201 | -119.65225 | 11225 ft | 193 kts | 109° |
| 2026-05-04 03:46 | 37.79690 | -119.63660 | 11228 ft | 192 kts | 109° |
| 2026-05-04 03:46 | 37.79180 | -119.62093 | 11234 ft | 192 kts | 109° |
| 2026-05-04 03:46 | 37.78671 | -119.60537 | 11233 ft | 189 kts | 109° |
| 2026-05-04 03:47 | 37.78170 | -119.58998 | 11236 ft | 191 kts | 108° |
| 2026-05-04 03:47 | 37.77658 | -119.57424 | 11235 ft | 194 kts | 109° |
| 2026-05-04 03:47 | 37.77139 | -119.55833 | 11235 ft | 196 kts | 109° |
| 2026-05-04 03:47 | 37.76620 | -119.54244 | 11237 ft | 196 kts | 109° |
| 2026-05-04 03:48 | 37.76094 | -119.52640 | 11238 ft | 197 kts | 109° |
| 2026-05-04 03:48 | 37.75570 | -119.51038 | 11237 ft | 197 kts | 109° |
| 2026-05-04 03:48 | 37.75042 | -119.49435 | 11241 ft | 197 kts | 109° |
| 2026-05-04 03:48 | 37.74520 | -119.47832 | 11249 ft | 198 kts | 109° |
| 2026-05-04 03:49 | 37.73994 | -119.46228 | 11250 ft | 198 kts | 109° |
| 2026-05-04 03:49 | 37.73461 | -119.44604 | 11251 ft | 198 kts | 109° |
| 2026-05-04 03:49 | 37.72935 | -119.43005 | 11252 ft | 198 kts | 109° |
| 2026-05-04 03:49 | 37.72413 | -119.41399 | 11260 ft | 199 kts | 109° |
| 2026-05-04 03:50 | 37.71874 | -119.39769 | 11250 ft | 200 kts | 109° |
| 2026-05-04 03:50 | 37.71339 | -119.38137 | 11189 ft | 201 kts | 109° |
| 2026-05-04 03:50 | 37.70818 | -119.36562 | 11435 ft | 189 kts | 109° |
| 2026-05-04 03:50 | 37.70335 | -119.35103 | 11873 ft | 171 kts | 108° |
| 2026-05-04 03:51 | 37.70034 | -119.34199 | 12043 ft | 170 kts | 109° |
| 2026-05-04 03:51 | 37.69405 | -119.32257 | 12080 ft | 185 kts | 109° |
| 2026-05-04 03:51 | 37.68902 | -119.30723 | 12070 ft | 192 kts | 109° |
| 2026-05-04 03:51 | 37.68385 | -119.29163 | 12078 ft | 196 kts | 110° |
| 2026-05-04 03:52 | 37.67859 | -119.27556 | 12071 ft | 198 kts | 110° |
| 2026-05-04 03:52 | 37.67325 | -119.25948 | 12078 ft | 200 kts | 109° |
| 2026-05-04 03:52 | 37.66788 | -119.24314 | 12078 ft | 201 kts | 109° |
| 2026-05-04 03:52 | 37.66425 | -119.23224 | 12074 ft | 200 kts | 110° |
| 2026-05-04 03:53 | 37.65713 | -119.21071 | 12067 ft | 199 kts | 109° |
| 2026-05-04 03:53 | 37.65183 | -119.19468 | 12075 ft | 198 kts | 109° |
| 2026-05-04 03:53 | 37.64648 | -119.17845 | 12063 ft | 198 kts | 109° |
| 2026-05-04 03:53 | 37.64120 | -119.16266 | 12057 ft | 197 kts | 109° |
| 2026-05-04 03:54 | 37.63593 | -119.14668 | 12067 ft | 196 kts | 110° |
| 2026-05-04 03:54 | 37.63060 | -119.13052 | 12076 ft | 196 kts | 109° |
| 2026-05-04 03:54 | 37.62534 | -119.11468 | 12087 ft | 197 kts | 109° |
| 2026-05-04 03:54 | 37.62002 | -119.09869 | 12091 ft | 197 kts | 110° |
| 2026-05-04 03:55 | 37.61473 | -119.08270 | 12094 ft | 198 kts | 110° |
| 2026-05-04 03:55 | 37.60940 | -119.06666 | 12095 ft | 198 kts | 109° |
| 2026-05-04 03:55 | 37.60403 | -119.05059 | 12095 ft | 199 kts | 109° |
| 2026-05-04 03:55 | 37.59888 | -119.03441 | 12092 ft | 198 kts | 102° |
| 2026-05-04 03:56 | 37.60090 | -119.01820 | 12124 ft | 188 kts | 61° |
| 2026-05-04 03:56 | 37.60542 | -119.00334 | 12094 ft | 193 kts | 69° |
| 2026-05-04 03:56 | 37.61032 | -118.98739 | 12078 ft | 192 kts | 62° |
| 2026-05-04 03:56 | 37.61581 | -118.97212 | 12068 ft | 192 kts | 63° |
| 2026-05-04 03:57 | 37.62145 | -118.95676 | 12064 ft | 192 kts | 62° |
| 2026-05-04 03:57 | 37.62514 | -118.94669 | 12063 ft | 191 kts | 62° |
| 2026-05-04 03:57 | 37.63265 | -118.92631 | 12060 ft | 192 kts | 62° |
| 2026-05-04 03:57 | 37.63831 | -118.91102 | 12037 ft | 193 kts | 62° |
| 2026-05-04 03:58 | 37.64957 | -118.88017 | 12013 ft | 194 kts | 65° |
| 2026-05-04 03:58 | 37.65383 | -118.86407 | 12002 ft | 194 kts | 68° |
| 2026-05-04 03:58 | 37.65805 | -118.84791 | 12000 ft | 194 kts | 70° |
| 2026-05-04 03:59 | 37.65986 | -118.83127 | 12023 ft | 197 kts | 99° |
| 2026-05-04 03:59 | 37.65474 | -118.81489 | 12034 ft | 199 kts | 109° |
| 2026-05-04 03:59 | 37.64907 | -118.79899 | 12035 ft | 199 kts | 112° |
| 2026-05-04 03:59 | 37.64309 | -118.78291 | 11867 ft | 207 kts | 112° |
| 2026-05-04 04:00 | 37.63696 | -118.76670 | 11613 ft | 203 kts | 112° |
| 2026-05-04 04:00 | 37.63105 | -118.75073 | 11361 ft | 202 kts | 112° |
| 2026-05-04 04:00 | 37.62520 | -118.73484 | 11129 ft | 199 kts | 112° |
| 2026-05-04 04:00 | 37.62137 | -118.72430 | 11062 ft | 194 kts | 111° |
| 2026-05-04 04:01 | 37.61410 | -118.70439 | 11060 ft | 182 kts | 111° |
| 2026-05-04 04:01 | 37.60891 | -118.69014 | 11066 ft | 176 kts | 112° |
| 2026-05-04 04:01 | 37.60380 | -118.67640 | 11071 ft | 173 kts | 112° |
| 2026-05-04 04:01 | 37.59856 | -118.66245 | 11111 ft | 180 kts | 112° |
| 2026-05-04 04:02 | 37.59321 | -118.64759 | 11096 ft | 188 kts | 111° |
| 2026-05-04 04:02 | 37.58743 | -118.63258 | 11102 ft | 193 kts | 116° |
| 2026-05-04 04:02 | 37.58032 | -118.61815 | 11095 ft | 197 kts | 119° |
| 2026-05-04 04:02 | 37.57370 | -118.60300 | 11093 ft | 197 kts | 109° |
| 2026-05-04 04:03 | 37.56779 | -118.58757 | 11119 ft | 197 kts | 122° |
| 2026-05-04 04:03 | 37.55893 | -118.57401 | 11128 ft | 199 kts | 128° |
| 2026-05-04 04:03 | 37.55006 | -118.56054 | 11092 ft | 201 kts | 126° |
| 2026-05-04 04:03 | 37.54122 | -118.54735 | 10968 ft | 192 kts | 134° |
| 2026-05-04 04:04 | 37.53100 | -118.53748 | 10502 ft | 182 kts | 142° |
| 2026-05-04 04:04 | 37.52079 | -118.52848 | 10033 ft | 175 kts | 143° |
| 2026-05-04 04:04 | 37.51091 | -118.51975 | 9523 ft | 173 kts | 142° |
| 2026-05-04 04:04 | 37.50140 | -118.51112 | 9104 ft | 166 kts | 145° |
| 2026-05-04 04:05 | 37.49187 | -118.50346 | 8744 ft | 159 kts | 145° |
| 2026-05-04 04:05 | 37.48266 | -118.49559 | 8245 ft | 163 kts | 143° |
| 2026-05-04 04:05 | 37.47368 | -118.48701 | 7817 ft | 161 kts | 140° |
| 2026-05-04 04:05 | 37.46524 | -118.47827 | 7478 ft | 153 kts | 137° |
| 2026-05-04 04:06 | 37.45773 | -118.46967 | 7213 ft | 144 kts | 133° |
| 2026-05-04 04:06 | 37.45063 | -118.46078 | 6850 ft | 144 kts | 133° |
| 2026-05-04 04:06 | 37.44340 | -118.45180 | 6439 ft | 147 kts | 137° |
| 2026-05-04 04:06 | 37.43608 | -118.44320 | 6122 ft | 142 kts | 135° |
| 2026-05-04 04:07 | 37.42912 | -118.43456 | 5787 ft | 139 kts | 134° |
| 2026-05-04 04:07 | 37.42279 | -118.42638 | 5634 ft | 123 kts | 132° |
| 2026-05-04 04:07 | 37.41721 | -118.41861 | 5362 ft | 120 kts | 131° |
| 2026-05-04 04:07 | 37.41166 | -118.41148 | 5175 ft | 109 kts | 137° |
| 2026-05-04 04:08 | 37.40635 | -118.40527 | 4972 ft | 98 kts | 134° |
| 2026-05-04 04:08 | 37.40160 | -118.39916 | 4687 ft | 97 kts | 134° |
| 2026-05-04 04:08 | 37.39675 | -118.39334 | 4495 ft | 96 kts | 137° |
| 2026-05-04 04:08 | 37.39179 | -118.38753 | 4403 ft | 99 kts | 137° |
| 2026-05-04 04:09 | 37.38678 | -118.38153 | 4308 ft | 97 kts | 136° |
| 2026-05-04 04:09 | 37.38197 | -118.37561 | 4202 ft | 96 kts | 136° |
| 2026-05-04 04:09 | 37.37729 | -118.36986 | 4148 ft | 88 kts | 133° |
| 2026-05-04 04:09 | 37.37412 | -118.36592 | 4139 ft | 35 kts | 138° |
| 2026-05-04 04:10 | 37.37265 | -118.36410 | 4136 ft | 27 kts | 135° |
| 2026-05-04 04:10 | 37.37193 | -118.36378 | 4135 ft | 8 kts | 227° |
| 2026-05-04 04:10 | 37.37154 | -118.36427 | 4136 ft | 4 kts | 223° |
| 2026-05-04 04:10 | 37.37134 | -118.36461 | 4136 ft | 2 kts | 228° |
| 2026-05-04 04:11 | 37.37113 | -118.36468 | 4136 ft | 3 kts | 180° |
| 2026-05-04 04:11 | 37.37108 | -118.36468 | 4136 ft | 0 kts | 178° |